createdAt,value
2023-12-08T14:30:09.894Z,43.33
2023-12-08T14:32:37.574Z,41.00
2023-12-08T14:35:11.171Z,39.95
2023-12-08T14:37:46.619Z,38.55
2023-12-08T14:40:14.829Z,36.95
2023-12-08T14:42:41.766Z,37.10
2023-12-08T14:45:11.513Z,36.50
2023-12-08T14:47:38.928Z,31.50
2023-12-08T14:50:06.324Z,31.40
2023-12-08T14:52:33.526Z,28.92
2023-12-08T14:55:05.834Z,27.73
2023-12-08T14:57:33.466Z,31.83
2023-12-08T15:00:00.431Z,32.90
2023-12-08T15:02:27.433Z,32.97
2023-12-08T15:04:54.395Z,28.88
2023-12-08T15:07:21.203Z,30.85
2023-12-08T15:09:48.063Z,40.45
2023-12-08T15:12:14.870Z,33.95
2023-12-08T15:14:41.837Z,33.33
2023-12-08T15:17:08.569Z,34.80
2023-12-08T15:19:35.651Z,39.72
2023-12-08T15:22:03.701Z,39.70
2023-12-08T15:24:30.671Z,34.63
2023-12-08T15:26:58.060Z,28.63
2023-12-08T15:29:24.904Z,21.25
2023-12-08T15:31:51.708Z,23.88
2023-12-08T15:34:19.791Z,22.42
2023-12-08T15:36:47.445Z,18.55
2023-12-08T15:39:15.612Z,19.23
2023-12-08T15:41:47.495Z,19.33
2023-12-08T15:44:14.989Z,28.08
2023-12-08T15:46:42.645Z,24.75
2023-12-08T15:49:11.406Z,25.38
2023-12-08T15:51:43.712Z,21.45
2023-12-08T15:54:10.994Z,23.25
2023-12-08T15:56:39.300Z,22.40
2023-12-08T15:59:06.655Z,20.88
2023-12-08T16:01:33.476Z,20.58
2023-12-08T16:04:01.698Z,43.03
2023-12-08T16:06:28.729Z,33.40
2023-12-08T16:08:55.558Z,27.17
2023-12-08T16:11:29.630Z,25.15
2023-12-08T16:13:57.209Z,22.48
2023-12-08T16:16:24.864Z,20.75
2023-12-08T16:18:52.535Z,25.38
2023-12-08T16:21:23.951Z,26.60
2023-12-08T16:23:51.175Z,23.10
2023-12-08T16:26:18.358Z,23.77
2023-12-08T16:28:45.503Z,25.23
2023-12-08T16:31:12.366Z,25.75
2023-12-08T16:33:39.608Z,23.92
2023-12-08T16:36:06.871Z,25.35
2023-12-08T16:38:35.731Z,21.98
2023-12-08T16:41:03.041Z,26.55
2023-12-08T16:43:30.100Z,26.23
2023-12-08T16:45:57.229Z,30.60
2023-12-08T16:48:24.397Z,29.05
2023-12-08T16:50:51.570Z,30.45
2023-12-08T16:53:21.006Z,25.05
2023-12-08T16:55:48.131Z,30.33
2023-12-08T16:58:15.460Z,31.15
2023-12-08T17:00:42.332Z,24.98
2023-12-08T17:03:09.189Z,20.58
2023-12-08T17:05:36.020Z,21.38
2023-12-08T17:08:02.873Z,22.85
2023-12-08T17:10:30.099Z,18.67
2023-12-08T17:12:56.859Z,16.75
2023-12-08T17:15:23.826Z,16.02
2023-12-08T17:17:57.194Z,15.13
2023-12-08T17:20:27.384Z,18.17
2023-12-08T17:22:54.368Z,16.85
2023-12-08T17:25:21.245Z,15.27
2023-12-08T17:27:48.091Z,13.93
2023-12-08T17:30:15.075Z,15.70
2023-12-08T17:32:42.036Z,12.05
2023-12-08T17:35:09.067Z,13.23
2023-12-08T17:37:36.055Z,12.00
2023-12-08T17:40:04.258Z,12.18
2023-12-08T17:42:31.299Z,14.32
2023-12-08T17:44:58.447Z,22.52
2023-12-08T17:47:25.356Z,25.30
2023-12-08T17:49:52.322Z,18.02
2023-12-08T17:52:22.600Z,11.93
2023-12-08T17:54:55.218Z,12.80
2023-12-08T17:57:22.306Z,12.68
2023-12-08T17:59:49.204Z,14.13
2023-12-08T18:02:16.112Z,11.88
2023-12-08T18:04:42.894Z,11.50
2023-12-08T18:07:10.441Z,12.23
2023-12-08T18:09:38.628Z,13.70
2023-12-08T18:12:09.672Z,12.45
2023-12-08T18:14:37.161Z,14.98
2023-12-08T18:17:04.230Z,11.63
2023-12-08T18:19:31.270Z,11.30
2023-12-08T18:21:58.570Z,14.40
2023-12-08T18:24:25.615Z,14.13
2023-12-08T18:26:54.371Z,16.30
2023-12-08T18:29:21.750Z,12.43
2023-12-08T18:31:48.993Z,12.30
2023-12-08T18:34:17.067Z,12.57
2023-12-08T18:36:44.071Z,14.73
2023-12-08T18:39:11.987Z,10.35
2023-12-08T18:41:39.311Z,9.77
2023-12-08T18:44:09.579Z,9.77
2023-12-08T18:46:36.580Z,9.38
2023-12-08T18:49:05.129Z,9.88
2023-12-08T18:51:32.468Z,9.02
2023-12-08T18:53:59.532Z,10.85
2023-12-08T18:56:26.774Z,10.07
2023-12-08T18:58:56.404Z,10.98
2023-12-08T19:01:28.231Z,12.20
2023-12-08T19:03:55.168Z,10.15
2023-12-08T19:06:22.342Z,8.52
2023-12-08T19:08:49.432Z,9.77
2023-12-08T19:11:16.411Z,11.00
2023-12-08T19:13:44.965Z,9.93
2023-12-08T19:16:12.064Z,8.43
2023-12-08T19:18:39.033Z,9.70
2023-12-08T19:21:06.200Z,8.82
2023-12-08T19:23:34.945Z,11.27
2023-12-08T19:26:03.400Z,12.05
2023-12-08T19:28:30.258Z,10.90
2023-12-08T19:30:57.168Z,11.63
2023-12-08T19:33:25.343Z,10.32
2023-12-08T19:35:55.454Z,7.75
2023-12-08T19:38:22.261Z,8.77
2023-12-08T19:40:49.061Z,11.73
2023-12-08T19:43:16.399Z,11.98
2023-12-08T19:45:43.291Z,10.55
2023-12-08T19:48:11.337Z,10.20
2023-12-08T19:50:39.605Z,7.95
2023-12-08T19:53:08.362Z,9.18
2023-12-08T19:55:35.274Z,11.15
2023-12-08T19:58:02.864Z,13.10
2023-12-08T20:00:29.785Z,16.23
2023-12-08T20:02:56.671Z,16.25
2023-12-08T20:05:23.517Z,15.05
2023-12-08T20:07:50.457Z,19.98
2023-12-08T20:10:17.515Z,19.73
2023-12-08T20:12:44.414Z,24.50
2023-12-08T20:15:12.757Z,18.42
2023-12-08T20:17:39.770Z,19.95
2023-12-08T20:20:07.562Z,15.32
2023-12-08T20:22:34.594Z,17.77
2023-12-08T20:25:01.594Z,15.18
2023-12-08T20:27:28.778Z,24.17
2023-12-08T20:29:55.877Z,27.30
2023-12-08T20:32:22.729Z,26.00
2023-12-08T20:34:49.590Z,25.65
2023-12-08T20:37:16.465Z,16.98
2023-12-08T20:39:46.766Z,15.85
2023-12-08T20:42:13.786Z,19.15
2023-12-08T20:44:40.649Z,18.13
2023-12-08T20:47:07.428Z,19.42
2023-12-08T20:49:34.349Z,14.43
2023-12-08T20:52:01.720Z,15.52
2023-12-08T20:54:28.779Z,13.93
2023-12-08T20:56:55.743Z,14.43
2023-12-08T20:59:22.628Z,19.48
2023-12-08T21:01:50.038Z,15.63
2023-12-08T21:04:17.054Z,15.55
2023-12-08T21:06:44.062Z,16.58
2023-12-08T21:09:14.623Z,15.20
2023-12-08T21:11:44.671Z,17.75
2023-12-08T21:14:13.284Z,17.90
2023-12-08T21:16:40.264Z,13.70
2023-12-08T21:19:07.381Z,15.00
2023-12-08T21:21:34.819Z,15.05
2023-12-08T21:24:01.818Z,16.85
2023-12-08T21:26:30.496Z,18.58
2023-12-08T21:28:57.393Z,16.13
2023-12-08T21:31:24.428Z,13.93
2023-12-08T21:33:51.377Z,14.68
2023-12-08T21:36:19.168Z,13.45
2023-12-08T21:38:46.159Z,16.30
2023-12-08T21:41:13.722Z,15.57
2023-12-08T21:43:40.539Z,17.50
2023-12-08T21:46:07.435Z,15.80
2023-12-08T21:48:34.552Z,14.60
2023-12-08T21:51:01.665Z,15.07
2023-12-08T21:53:28.814Z,15.25
2023-12-08T21:55:56.471Z,13.05
2023-12-08T21:58:23.365Z,17.65
2023-12-08T22:00:50.180Z,15.30
2023-12-08T22:03:17.630Z,19.17
2023-12-08T22:05:45.596Z,13.77
2023-12-08T22:08:12.474Z,14.57
2023-12-08T22:10:39.944Z,14.05
2023-12-08T22:13:06.827Z,15.30
2023-12-08T22:15:33.710Z,14.05
2023-12-08T22:18:00.626Z,16.98
2023-12-08T22:20:27.659Z,15.48
2023-12-08T22:22:54.445Z,14.82
2023-12-08T22:25:21.411Z,13.73
2023-12-08T22:27:48.499Z,12.70
2023-12-08T22:30:15.502Z,16.48
2023-12-08T22:32:42.886Z,12.63
2023-12-08T22:35:09.964Z,13.63
2023-12-08T22:37:38.056Z,13.20
2023-12-08T22:40:05.815Z,13.52
2023-12-08T22:42:32.692Z,12.82
2023-12-08T22:44:59.498Z,13.10
2023-12-08T22:47:26.648Z,14.23
2023-12-08T22:49:53.751Z,13.77
2023-12-08T22:52:20.679Z,14.75
2023-12-08T22:54:47.543Z,15.35
2023-12-08T22:57:14.535Z,13.93
2023-12-08T22:59:41.388Z,15.65
2023-12-08T23:02:08.211Z,16.33
2023-12-08T23:04:35.925Z,16.75
2023-12-08T23:07:02.700Z,13.95
2023-12-08T23:09:29.971Z,12.70
2023-12-08T23:11:56.963Z,14.98
2023-12-08T23:14:23.828Z,13.05
2023-12-08T23:16:50.685Z,13.55
2023-12-08T23:19:17.666Z,14.85
2023-12-08T23:21:44.708Z,13.35
2023-12-08T23:24:11.565Z,15.93
2023-12-08T23:26:40.696Z,14.68
2023-12-08T23:29:07.807Z,14.68
2023-12-08T23:31:35.177Z,12.65
2023-12-08T23:34:02.563Z,15.10
2023-12-08T23:36:29.539Z,13.98
2023-12-08T23:38:56.714Z,15.32
2023-12-08T23:41:23.644Z,13.20
2023-12-08T23:43:52.660Z,12.82
2023-12-08T23:46:20.951Z,13.15
2023-12-08T23:48:47.946Z,13.88
2023-12-08T23:51:14.807Z,12.35
2023-12-08T23:53:41.574Z,16.00
2023-12-08T23:56:08.828Z,15.13
2023-12-08T23:58:35.618Z,13.38
